Terminal Aerodrome Forecast
Issued by NWS Denver/Boulder, CO

Home | Current Version | Previous Version | Text Only | Print | Product List | Glossary On
Versions: 1 2 3 4 5 6 7 8 9 10 11 12 13 14 15 16 17 18 19 20 21 22 23 24 25 26 27 28 29 30 31 32 33 34 35 36 37 38 39 40 41 42 43 44 45 46 47 48 49 50
000
FTUS45 KBOU 250539
TAFDEN
TAF
KDEN 250539Z 2506/2612 35007KT P6SM SCT045 BKN080
     FM250800 29006KT P6SM SCT035 BKN060
     FM250900 25006KT P6SM VCSH SCT025 BKN040
     FM251100 VRB05KT P6SM SCT030 BKN050
      TEMPO 2512/2516 -SHRA BKN025 OVC040
     FM251900 04008KT P6SM SCT040 BKN080
      TEMPO 2521/2601 5SM -TSRA BKN040CB
     FM260300 23009KT P6SM BKN060=

USA.gov is the U.S. government's official web portal to all federal, state and local government web resources and services.